createdAt,value
2022-09-15T00:01:25.950Z,95333.00
2022-09-15T00:05:29.190Z,95331.00
2022-09-15T00:09:32.308Z,95328.00
2022-09-15T00:13:36.548Z,95316.00
2022-09-15T00:17:40.990Z,95327.00
2022-09-15T00:21:44.022Z,95324.00
2022-09-15T00:25:49.174Z,95330.00
2022-09-15T00:30:23.086Z,95331.00
2022-09-15T00:34:27.493Z,95329.00
2022-09-15T00:38:31.082Z,95330.00
2022-09-15T00:42:34.156Z,95328.00
2022-09-15T00:46:40.404Z,95322.00
2022-09-15T00:50:50.863Z,95324.00
2022-09-15T00:54:58.691Z,95312.00
2022-09-15T00:59:30.509Z,95310.00
2022-09-15T01:03:35.345Z,95300.00
2022-09-15T01:07:44.354Z,95299.00
2022-09-15T01:11:47.865Z,95294.00
2022-09-15T01:16:27.879Z,95294.00
2022-09-15T01:20:55.973Z,95291.00
2022-09-15T01:25:08.727Z,95290.00
2022-09-15T01:29:59.373Z,95280.00
2022-09-15T01:34:07.273Z,95282.00
2022-09-15T01:38:16.069Z,95272.00
2022-09-15T01:42:20.118Z,95267.00
2022-09-15T01:46:26.736Z,95274.00
2022-09-15T01:50:34.158Z,95282.00
2022-09-15T01:54:41.614Z,95278.00
2022-09-15T01:59:12.174Z,95260.00
2022-09-15T02:03:22.734Z,95264.00
2022-09-15T02:07:35.599Z,95259.00
2022-09-15T02:11:45.671Z,95251.00
2022-09-15T02:15:53.388Z,95264.00
2022-09-15T02:20:03.290Z,95246.00
2022-09-15T02:24:12.966Z,95248.00
2022-09-15T02:28:18.417Z,95253.00
2022-09-15T02:32:54.502Z,95247.00
2022-09-15T02:36:59.347Z,95243.00
2022-09-15T02:41:03.534Z,95235.00
2022-09-15T02:45:07.459Z,95235.00
2022-09-15T02:49:10.669Z,95230.00
2022-09-15T02:53:15.255Z,95233.00
2022-09-15T02:57:49.661Z,95234.00
2022-09-15T03:01:53.006Z,95259.00
2022-09-15T03:06:16.102Z,95241.00
2022-09-15T03:10:20.865Z,95237.00
2022-09-15T03:14:54.628Z,95243.00
2022-09-15T03:18:59.759Z,95254.00
2022-09-15T03:23:03.474Z,95252.00
2022-09-15T03:27:08.164Z,95249.00
2022-09-15T03:31:42.575Z,95245.00
2022-09-15T03:35:47.442Z,95241.00
2022-09-15T03:39:50.571Z,95240.00
2022-09-15T03:43:55.274Z,95250.00
2022-09-15T03:48:05.345Z,95246.00
2022-09-15T03:52:08.402Z,95248.00
2022-09-15T03:56:14.951Z,95254.00
2022-09-15T04:00:19.756Z,95249.00
2022-09-15T04:04:22.890Z,95238.00
2022-09-15T04:09:00.210Z,95227.00
2022-09-15T04:13:03.299Z,95215.00
2022-09-15T04:17:08.033Z,95210.00
2022-09-15T04:21:14.244Z,95204.00
2022-09-15T04:25:17.575Z,95209.00
2022-09-15T04:29:20.991Z,95203.00
2022-09-15T04:33:25.535Z,95208.00
2022-09-15T04:37:28.541Z,95209.00
2022-09-15T04:42:06.286Z,95204.00
2022-09-15T04:46:09.346Z,95201.00
2022-09-15T04:50:13.842Z,95184.00
2022-09-15T04:54:16.975Z,95184.00
2022-09-15T04:58:58.257Z,95186.00
2022-09-15T05:03:04.066Z,95202.00
2022-09-15T05:07:08.688Z,95209.00
2022-09-15T05:11:42.441Z,95206.00
2022-09-15T05:15:45.486Z,95211.00
2022-09-15T05:19:48.501Z,95213.00
2022-09-15T05:24:26.947Z,95217.00
2022-09-15T05:28:30.254Z,95213.00
2022-09-15T05:32:33.443Z,95220.00
2022-09-15T05:36:36.543Z,95215.00
2022-09-15T05:40:40.977Z,95211.00
2022-09-15T05:45:15.103Z,95198.00
2022-09-15T05:49:18.141Z,95212.00
2022-09-15T05:53:22.134Z,95210.00
2022-09-15T05:57:26.525Z,95203.00
2022-09-15T06:01:31.122Z,95193.00
2022-09-15T06:05:34.329Z,95204.00
2022-09-15T06:09:37.449Z,95198.00
2022-09-15T06:14:15.955Z,95209.00
2022-09-15T06:18:19.007Z,95216.00
2022-09-15T06:22:22.033Z,95213.00
2022-09-15T06:26:25.893Z,95209.00
2022-09-15T06:30:30.294Z,95212.00
2022-09-15T06:34:34.333Z,95213.00
2022-09-15T06:39:11.436Z,95208.00
2022-09-15T06:43:14.387Z,95228.00
2022-09-15T06:47:18.917Z,95230.00
2022-09-15T06:51:24.277Z,95229.00
2022-09-15T06:55:28.414Z,95236.00
2022-09-15T07:00:02.124Z,95242.00
2022-09-15T07:04:10.068Z,95243.00
2022-09-15T07:08:13.249Z,95244.00
2022-09-15T07:12:16.315Z,95252.00
2022-09-15T07:16:53.204Z,95245.00
2022-09-15T07:21:01.914Z,95248.00
2022-09-15T07:25:05.441Z,95254.00
2022-09-15T07:29:08.534Z,95257.00
2022-09-15T07:33:14.698Z,95260.00
2022-09-15T07:37:19.098Z,95268.00
2022-09-15T07:41:23.938Z,95261.00
2022-09-15T07:45:27.093Z,95273.00
2022-09-15T07:49:31.042Z,95264.00
2022-09-15T07:53:35.493Z,95262.00
2022-09-15T07:58:08.886Z,95281.00
2022-09-15T08:02:18.141Z,95272.00
2022-09-15T08:06:22.911Z,95285.00
2022-09-15T08:10:27.790Z,95282.00
2022-09-15T08:14:31.913Z,95293.00
2022-09-15T08:18:35.494Z,95285.00
2022-09-15T08:22:38.615Z,95297.00
2022-09-15T08:27:16.933Z,95294.00
2022-09-15T08:31:20.020Z,95293.00
2022-09-15T08:35:23.080Z,95304.00
2022-09-15T08:39:26.241Z,95305.00
2022-09-15T08:43:37.293Z,95315.00
2022-09-15T08:47:44.391Z,95312.00
2022-09-15T08:51:49.802Z,95315.00
2022-09-15T08:55:55.342Z,95318.00
2022-09-15T09:00:52.993Z,95317.00
2022-09-15T09:05:18.720Z,95325.00
2022-09-15T09:09:29.297Z,95324.00
2022-09-15T09:14:01.118Z,95332.00
2022-09-15T09:18:35.698Z,95330.00
2022-09-15T09:22:43.821Z,95327.00
2022-09-15T09:27:14.386Z,95334.00
2022-09-15T09:31:22.051Z,95335.00
2022-09-15T09:35:30.892Z,95332.00
2022-09-15T09:40:01.177Z,95333.00
2022-09-15T09:44:11.458Z,95328.00
2022-09-15T09:48:20.136Z,95330.00
2022-09-15T09:52:35.303Z,95319.00
2022-09-15T09:57:22.160Z,95314.00
2022-09-15T10:01:27.326Z,95325.00
2022-09-15T10:05:30.666Z,95341.00
2022-09-15T10:09:33.962Z,95334.00
2022-09-15T10:14:07.804Z,95336.00
2022-09-15T10:18:28.381Z,95338.00
2022-09-15T10:22:34.030Z,95337.00
2022-09-15T10:26:37.082Z,95340.00
2022-09-15T10:30:40.961Z,95336.00
2022-09-15T10:35:20.010Z,95336.00
2022-09-15T10:39:27.838Z,95347.00
2022-09-15T10:43:39.885Z,95356.00
2022-09-15T10:48:15.552Z,95350.00
2022-09-15T10:52:28.072Z,95355.00
2022-09-15T10:56:35.092Z,95350.00
2022-09-15T11:00:46.956Z,95332.00
2022-09-15T11:05:39.645Z,95340.00
2022-09-15T11:09:47.431Z,95342.00
2022-09-15T11:14:07.381Z,95351.00
2022-09-15T11:18:27.710Z,95345.00
2022-09-15T11:22:35.521Z,95333.00
2022-09-15T11:26:45.034Z,95335.00
2022-09-15T11:30:54.721Z,95332.00
2022-09-15T11:35:37.967Z,95321.00
2022-09-15T11:39:47.466Z,95332.00
2022-09-15T11:44:22.369Z,95339.00
2022-09-15T11:48:29.610Z,95336.00
2022-09-15T11:52:45.930Z,95348.00
2022-09-15T11:57:17.634Z,95345.00
2022-09-15T12:01:25.886Z,95350.00
2022-09-15T12:05:34.185Z,95343.00
2022-09-15T12:10:07.303Z,95345.00
2022-09-15T12:14:15.472Z,95347.00
2022-09-15T12:18:39.004Z,95359.00
2022-09-15T12:23:00.266Z,95365.00
2022-09-15T12:27:03.516Z,95359.00
2022-09-15T12:31:16.471Z,95354.00
2022-09-15T12:35:39.205Z,95350.00
2022-09-15T12:39:55.733Z,95348.00
2022-09-15T12:44:01.722Z,95346.00
2022-09-15T12:48:08.320Z,95344.00
2022-09-15T12:52:13.929Z,95347.00
2022-09-15T12:56:25.215Z,95351.00
2022-09-15T13:00:31.181Z,95353.00
2022-09-15T13:04:52.873Z,95351.00
2022-09-15T13:09:26.795Z,95367.00
2022-09-15T13:13:36.672Z,95365.00
2022-09-15T13:18:07.424Z,95355.00
2022-09-15T13:22:20.383Z,95360.00
2022-09-15T13:26:28.358Z,95361.00
2022-09-15T13:30:42.234Z,95340.00
2022-09-15T13:35:21.042Z,95340.00
2022-09-15T13:39:37.083Z,95331.00
2022-09-15T13:44:08.657Z,95332.00
2022-09-15T13:48:32.885Z,95340.00
2022-09-15T13:52:49.242Z,95337.00
2022-09-15T13:56:53.353Z,95333.00
2022-09-15T14:01:01.123Z,95341.00
2022-09-15T14:05:04.274Z,95339.00
2022-09-15T14:09:10.835Z,95346.00
2022-09-15T14:13:17.737Z,95352.00
2022-09-15T14:17:24.123Z,95349.00
2022-09-15T14:21:29.302Z,95353.00
2022-09-15T14:25:32.426Z,95358.00
2022-09-15T14:29:40.950Z,95364.00
2022-09-15T14:34:18.457Z,95348.00
2022-09-15T14:38:23.722Z,95350.00
2022-09-15T14:42:30.748Z,95374.00
2022-09-15T14:46:38.541Z,95379.00
2022-09-15T14:51:19.736Z,95408.00
2022-09-15T14:55:25.526Z,95414.00
2022-09-15T14:59:35.516Z,95405.00
2022-09-15T15:04:06.143Z,95408.00
2022-09-15T15:08:19.654Z,95424.00
2022-09-15T15:12:26.018Z,95437.00
2022-09-15T15:16:31.876Z,95449.00
2022-09-15T15:20:34.968Z,95447.00
2022-09-15T15:24:45.519Z,95451.00
2022-09-15T15:28:48.814Z,95462.00
2022-09-15T15:32:52.021Z,95463.00
2022-09-15T15:37:04.302Z,95451.00
2022-09-15T15:41:10.323Z,95459.00
2022-09-15T15:45:23.857Z,95464.00
2022-09-15T15:49:29.409Z,95465.00
2022-09-15T15:53:32.822Z,95462.00
2022-09-15T15:58:11.870Z,95460.00
2022-09-15T16:02:15.029Z,95458.00
2022-09-15T16:06:18.138Z,95459.00
2022-09-15T16:10:23.804Z,95459.00
2022-09-15T16:14:28.291Z,95468.00
2022-09-15T16:18:31.422Z,95476.00
2022-09-15T16:22:34.868Z,95467.00
2022-09-15T16:26:37.878Z,95474.00
2022-09-15T16:30:42.415Z,95479.00
2022-09-15T16:35:21.757Z,95480.00
2022-09-15T16:39:24.826Z,95490.00
2022-09-15T16:43:28.186Z,95496.00
2022-09-15T16:47:32.611Z,95496.00
2022-09-15T16:52:06.899Z,95499.00
2022-09-15T16:56:12.958Z,95496.00
2022-09-15T17:00:16.657Z,95496.00
2022-09-15T17:04:21.296Z,95499.00
2022-09-15T17:08:55.729Z,95504.00
2022-09-15T17:12:58.915Z,95512.00
2022-09-15T17:17:01.974Z,95514.00
2022-09-15T17:21:06.765Z,95511.00
2022-09-15T17:25:41.350Z,95512.00
2022-09-15T17:29:44.750Z,95532.00
2022-09-15T17:33:48.864Z,95538.00
2022-09-15T17:37:53.629Z,95545.00
2022-09-15T17:41:56.684Z,95542.00
2022-09-15T17:46:33.374Z,95543.00
2022-09-15T17:50:38.318Z,95545.00
2022-09-15T17:54:42.810Z,95557.00
2022-09-15T17:58:45.866Z,95559.00
2022-09-15T18:02:50.973Z,95556.00
2022-09-15T18:06:54.081Z,95564.00
2022-09-15T18:10:58.541Z,95576.00
2022-09-15T18:15:33.192Z,95579.00
2022-09-15T18:19:36.405Z,95589.00
2022-09-15T18:23:42.406Z,95590.00
2022-09-15T18:28:11.625Z,95590.00
2022-09-15T18:32:14.747Z,95596.00
2022-09-15T18:36:17.838Z,95605.00
2022-09-15T18:40:21.377Z,95606.00
2022-09-15T18:44:26.296Z,95602.00
2022-09-15T18:48:41.163Z,95616.00
2022-09-15T18:52:44.313Z,95620.00
2022-09-15T18:56:47.370Z,95619.00
2022-09-15T19:00:52.036Z,95623.00
2022-09-15T19:04:55.006Z,95632.00
2022-09-15T19:09:31.840Z,95635.00
2022-09-15T19:13:35.711Z,95628.00
2022-09-15T19:17:40.854Z,95624.00
2022-09-15T19:21:43.908Z,95639.00
2022-09-15T19:25:47.027Z,95647.00
2022-09-15T19:29:50.503Z,95648.00
2022-09-15T19:33:54.982Z,95653.00
2022-09-15T19:38:29.367Z,95658.00
2022-09-15T19:42:32.399Z,95656.00
2022-09-15T19:46:35.490Z,95662.00
2022-09-15T19:50:41.243Z,95667.00
2022-09-15T19:54:44.427Z,95678.00
2022-09-15T19:59:21.571Z,95672.00
2022-09-15T20:03:26.679Z,95672.00
2022-09-15T20:07:32.609Z,95667.00
2022-09-15T20:11:36.175Z,95672.00
2022-09-15T20:16:09.818Z,95680.00
2022-09-15T20:20:13.605Z,95695.00
2022-09-15T20:24:18.508Z,95692.00
2022-09-15T20:28:52.843Z,95691.00
2022-09-15T20:32:55.972Z,95690.00
2022-09-15T20:36:59.183Z,95692.00
2022-09-15T20:41:03.832Z,95689.00
2022-09-15T20:45:37.733Z,95692.00
2022-09-15T20:49:41.078Z,95697.00
2022-09-15T20:53:46.550Z,95692.00
2022-09-15T20:57:51.047Z,95701.00
2022-09-15T21:02:24.913Z,95700.00
2022-09-15T21:06:29.089Z,95701.00
2022-09-15T21:10:32.238Z,95701.00
2022-09-15T21:14:36.708Z,95695.00
2022-09-15T21:19:12.311Z,95671.00
2022-09-15T21:23:16.532Z,95665.00
2022-09-15T21:27:29.716Z,95696.00
2022-09-15T21:31:34.373Z,95705.00
2022-09-15T21:36:09.445Z,95706.00
2022-09-15T21:40:13.128Z,95707.00
2022-09-15T21:44:16.549Z,95717.00
2022-09-15T21:48:21.120Z,95708.00
2022-09-15T21:52:48.451Z,95715.00
2022-09-15T21:56:52.468Z,95711.00
2022-09-15T22:00:55.586Z,95709.00
2022-09-15T22:05:01.059Z,95709.00
2022-09-15T22:09:07.378Z,95715.00
2022-09-15T22:13:42.912Z,95717.00
2022-09-15T22:17:46.032Z,95709.00
2022-09-15T22:21:50.846Z,95704.00
2022-09-15T22:25:53.887Z,95694.00
2022-09-15T22:30:30.377Z,95698.00
2022-09-15T22:34:33.438Z,95703.00
2022-09-15T22:38:38.435Z,95701.00
2022-09-15T22:42:41.476Z,95703.00
2022-09-15T22:46:44.740Z,95711.00
2022-09-15T22:50:47.807Z,95715.00
2022-09-15T22:55:26.749Z,95708.00
2022-09-15T22:59:29.823Z,95718.00
2022-09-15T23:03:33.257Z,95707.00
2022-09-15T23:07:36.932Z,95693.00
2022-09-15T23:11:41.627Z,95690.00
2022-09-15T23:16:18.149Z,95685.00
2022-09-15T23:20:21.377Z,95686.00
2022-09-15T23:24:24.421Z,95681.00
2022-09-15T23:28:29.102Z,95687.00
2022-09-15T23:32:32.197Z,95687.00
2022-09-15T23:36:35.526Z,95683.00
2022-09-15T23:40:38.601Z,95685.00
2022-09-15T23:44:42.987Z,95673.00
2022-09-15T23:48:46.459Z,95679.00
2022-09-15T23:52:49.843Z,95675.00
2022-09-15T23:56:52.949Z,95673.00
